Huvudsida
METAR-TAF:

METAR-TAF

Flygplatser :

Bamako, Mali

latitud: 12-32N, longitud: 007-57W, höjd: 380 m

Aktuellt väderrapport

Denna rapport gjordes för 23 minuter sedan, klockan 04:30 UTC
Vind 3 kt från nord
Temperatur 24°C
Fuktighet 31%
Tryck 1007 hPa
Sikt: 8000 m

METAR: GABS 230430Z 01003KT 8000 NSC 24/06 Q1007 NOSIG

Tid: 04:53 (04:53 UTC)

Väderprognos

Denna rapport gjordes för 5 timmar och 53 minuter sedan, klockan 23:00 UTC
Prognos gäller från 23 kl. 00 UTC till 24 kl. 06 UTC
Vind 3 kt från nord i byarna ända upp till 14 kt
Sikt: 8000 m
Sannolikhet 40%
från 24 kl. 00 UTC till 24 kl. 06 UTC
Sikt: 4000 m
Brutna moln på en höjd av 3000 ft
Spridda moln på en höjd av 4500 ft, Cumulonimbus.
högt damm drev, åska, regn

TAF: GABS 222300Z 2300/2406 01003G14KT 8000 NSC PROB40 2400/2406 24006G16 4000 BLDU TSRA BKN030 SCT045CB

Aktuella väderrapporter och prognoser från 4000 flygplatser (METAR- och TAF-rapporter).

De tillgängliga stationerna syns som gula och röda prickar på kartan.

För musen över prickarna för att se namnen på stationerna.

Klicka sedan för att få väderrapporter och prognoser.

För att ändra kartan: Klicka på de gröna knapparna med ett svart kors på för att zooma in; den gröna knappen med ett streck på för att zooma ut; eller på de gröna pilarna för angränsande kartor.


METAR-TAF: